sensor_id;sensor_type;location;lat;lon;timestamp;temperature;humidity
2657;DHT22;1338;48.176;11.792;2022-10-17T00:00:31;10.90;99.90
2657;DHT22;1338;48.176;11.792;2022-10-17T00:02:59;10.80;99.90
2657;DHT22;1338;48.176;11.792;2022-10-17T00:05:29;10.80;99.90
2657;DHT22;1338;48.176;11.792;2022-10-17T00:07:57;11.00;1.00
2657;DHT22;1338;48.176;11.792;2022-10-17T00:10:25;11.00;99.90
2657;DHT22;1338;48.176;11.792;2022-10-17T00:12:53;11.20;99.90
2657;DHT22;1338;48.176;11.792;2022-10-17T00:15:21;11.10;73.30
2657;DHT22;1338;48.176;11.792;2022-10-17T00:17:49;10.90;74.70
2657;DHT22;1338;48.176;11.792;2022-10-17T00:20:17;10.90;89.50
2657;DHT22;1338;48.176;11.792;2022-10-17T00:22:47;10.80;99.90
2657;DHT22;1338;48.176;11.792;2022-10-17T00:25:15;10.70;99.90
2657;DHT22;1338;48.176;11.792;2022-10-17T00:27:43;10.50;99.90
2657;DHT22;1338;48.176;11.792;2022-10-17T00:30:15;10.20;99.90
2657;DHT22;1338;48.176;11.792;2022-10-17T00:32:43;10.00;99.90
2657;DHT22;1338;48.176;11.792;2022-10-17T00:35:11;10.20;1.00
2657;DHT22;1338;48.176;11.792;2022-10-17T00:37:40;10.10;1.00
2657;DHT22;1338;48.176;11.792;2022-10-17T00:40:11;9.70;1.00
2657;DHT22;1338;48.176;11.792;2022-10-17T00:42:39;9.70;1.00
2657;DHT22;1338;48.176;11.792;2022-10-17T00:45:20;9.80;1.00
2657;DHT22;1338;48.176;11.792;2022-10-17T00:47:52;9.80;1.00
2657;DHT22;1338;48.176;11.792;2022-10-17T00:50:23;10.00;1.00
2657;DHT22;1338;48.176;11.792;2022-10-17T00:52:52;10.00;1.00
2657;DHT22;1338;48.176;11.792;2022-10-17T00:55:26;10.20;1.00
2657;DHT22;1338;48.176;11.792;2022-10-17T00:57:56;10.20;1.00
2657;DHT22;1338;48.176;11.792;2022-10-17T01:00:24;9.90;99.90
2657;DHT22;1338;48.176;11.792;2022-10-17T01:02:53;9.80;99.90
2657;DHT22;1338;48.176;11.792;2022-10-17T01:05:21;9.70;99.90
2657;DHT22;1338;48.176;11.792;2022-10-17T01:07:51;9.60;99.90
2657;DHT22;1338;48.176;11.792;2022-10-17T01:10:20;9.50;99.90
2657;DHT22;1338;48.176;11.792;2022-10-17T01:13:06;9.60;1.00
2657;DHT22;1338;48.176;11.792;2022-10-17T01:15:47;9.40;1.00
2657;DHT22;1338;48.176;11.792;2022-10-17T01:18:29;9.50;1.00
2657;DHT22;1338;48.176;11.792;2022-10-17T01:21:18;9.80;1.00
2657;DHT22;1338;48.176;11.792;2022-10-17T01:26:54;9.70;1.00
2657;DHT22;1338;48.176;11.792;2022-10-17T01:29:39;9.80;1.00
2657;DHT22;1338;48.176;11.792;2022-10-17T01:32:16;9.90;1.00
2657;DHT22;1338;48.176;11.792;2022-10-17T01:34:50;10.10;1.00
2657;DHT22;1338;48.176;11.792;2022-10-17T01:37:28;10.10;1.00
2657;DHT22;1338;48.176;11.792;2022-10-17T01:40:02;10.30;1.00
2657;DHT22;1338;48.176;11.792;2022-10-17T01:42:37;10.70;99.90
2657;DHT22;1338;48.176;11.792;2022-10-17T01:45:12;11.00;99.90
2657;DHT22;1338;48.176;11.792;2022-10-17T01:47:45;11.10;1.00
2657;DHT22;1338;48.176;11.792;2022-10-17T01:50:19;11.10;1.00
2657;DHT22;1338;48.176;11.792;2022-10-17T01:52:52;11.10;1.00
2657;DHT22;1338;48.176;11.792;2022-10-17T01:55:25;11.00;1.00
2657;DHT22;1338;48.176;11.792;2022-10-17T01:57:58;10.70;22.60
2657;DHT22;1338;48.176;11.792;2022-10-17T02:00:30;10.50;99.90
2657;DHT22;1338;48.176;11.792;2022-10-17T02:03:04;10.40;99.90
2657;DHT22;1338;48.176;11.792;2022-10-17T02:05:39;10.30;99.90
2657;DHT22;1338;48.176;11.792;2022-10-17T02:08:08;9.90;99.90
2657;DHT22;1338;48.176;11.792;2022-10-17T02:10:39;9.60;99.90
2657;DHT22;1338;48.176;11.792;2022-10-17T02:13:17;9.40;99.90
2657;DHT22;1338;48.176;11.792;2022-10-17T02:16:04;9.20;99.90
2657;DHT22;1338;48.176;11.792;2022-10-17T02:18:52;9.20;1.00
2657;DHT22;1338;48.176;11.792;2022-10-17T02:21:30;9.10;1.00
2657;DHT22;1338;48.176;11.792;2022-10-17T02:24:08;9.10;1.00
2657;DHT22;1338;48.176;11.792;2022-10-17T02:26:45;9.30;1.00
2657;DHT22;1338;48.176;11.792;2022-10-17T02:29:17;9.40;1.00
2657;DHT22;1338;48.176;11.792;2022-10-17T02:31:49;9.50;1.00
2657;DHT22;1338;48.176;11.792;2022-10-17T02:34:24;9.40;1.00
2657;DHT22;1338;48.176;11.792;2022-10-17T02:36:57;9.30;1.00
2657;DHT22;1338;48.176;11.792;2022-10-17T02:39:27;9.50;1.00
2657;DHT22;1338;48.176;11.792;2022-10-17T02:41:59;9.50;1.00
2657;DHT22;1338;48.176;11.792;2022-10-17T02:44:30;9.50;1.00
2657;DHT22;1338;48.176;11.792;2022-10-17T02:47:04;9.60;1.00
2657;DHT22;1338;48.176;11.792;2022-10-17T02:49:39;9.70;1.00
2657;DHT22;1338;48.176;11.792;2022-10-17T02:52:13;9.80;1.00
2657;DHT22;1338;48.176;11.792;2022-10-17T02:54:47;9.70;1.00
2657;DHT22;1338;48.176;11.792;2022-10-17T02:57:21;9.60;1.00
2657;DHT22;1338;48.176;11.792;2022-10-17T02:59:52;9.50;1.00
2657;DHT22;1338;48.176;11.792;2022-10-17T03:02:22;9.40;1.00
2657;DHT22;1338;48.176;11.792;2022-10-17T03:04:52;9.30;1.00
2657;DHT22;1338;48.176;11.792;2022-10-17T03:07:20;9.20;1.00
2657;DHT22;1338;48.176;11.792;2022-10-17T03:09:48;9.20;1.00
2657;DHT22;1338;48.176;11.792;2022-10-17T03:12:17;9.20;1.00
2657;DHT22;1338;48.176;11.792;2022-10-17T03:14:45;9.20;1.00
2657;DHT22;1338;48.176;11.792;2022-10-17T03:17:13;9.10;1.00
2657;DHT22;1338;48.176;11.792;2022-10-17T03:19:41;9.20;1.00
2657;DHT22;1338;48.176;11.792;2022-10-17T03:22:10;9.10;1.00
2657;DHT22;1338;48.176;11.792;2022-10-17T03:24:40;9.10;1.00
2657;DHT22;1338;48.176;11.792;2022-10-17T03:27:09;8.80;1.00
2657;DHT22;1338;48.176;11.792;2022-10-17T03:29:37;8.90;1.00
2657;DHT22;1338;48.176;11.792;2022-10-17T03:32:08;8.90;1.00
2657;DHT22;1338;48.176;11.792;2022-10-17T03:34:37;8.90;1.00
2657;DHT22;1338;48.176;11.792;2022-10-17T03:37:05;8.70;1.00
2657;DHT22;1338;48.176;11.792;2022-10-17T03:39:36;8.70;1.00
2657;DHT22;1338;48.176;11.792;2022-10-17T03:42:04;8.70;1.00
2657;DHT22;1338;48.176;11.792;2022-10-17T03:44:33;8.60;1.00
2657;DHT22;1338;48.176;11.792;2022-10-17T03:47:01;8.30;1.00
2657;DHT22;1338;48.176;11.792;2022-10-17T03:49:29;8.20;1.00
2657;DHT22;1338;48.176;11.792;2022-10-17T03:51:57;8.20;1.00
2657;DHT22;1338;48.176;11.792;2022-10-17T03:54:26;8.00;1.00
2657;DHT22;1338;48.176;11.792;2022-10-17T03:56:56;8.10;1.00
2657;DHT22;1338;48.176;11.792;2022-10-17T03:59:24;8.00;1.00
2657;DHT22;1338;48.176;11.792;2022-10-17T04:02:00;7.80;1.00
2657;DHT22;1338;48.176;11.792;2022-10-17T04:04:28;7.70;1.00
2657;DHT22;1338;48.176;11.792;2022-10-17T04:06:57;7.60;1.00
2657;DHT22;1338;48.176;11.792;2022-10-17T04:09:25;7.70;1.00
2657;DHT22;1338;48.176;11.792;2022-10-17T04:12:00;7.90;1.00
2657;DHT22;1338;48.176;11.792;2022-10-17T04:14:30;8.10;1.00
2657;DHT22;1338;48.176;11.792;2022-10-17T04:16:58;8.10;1.00
2657;DHT22;1338;48.176;11.792;2022-10-17T04:19:28;8.40;1.00
2657;DHT22;1338;48.176;11.792;2022-10-17T04:21:56;8.40;1.00
2657;DHT22;1338;48.176;11.792;2022-10-17T04:24:26;8.30;1.00
2657;DHT22;1338;48.176;11.792;2022-10-17T04:27:05;8.40;1.00
2657;DHT22;1338;48.176;11.792;2022-10-17T04:29:37;8.20;1.00
2657;DHT22;1338;48.176;11.792;2022-10-17T04:32:15;8.40;1.00
2657;DHT22;1338;48.176;11.792;2022-10-17T04:35:04;8.30;1.00
2657;DHT22;1338;48.176;11.792;2022-10-17T04:37:32;8.10;1.00
2657;DHT22;1338;48.176;11.792;2022-10-17T04:40:07;8.40;1.00
2657;DHT22;1338;48.176;11.792;2022-10-17T04:42:37;8.90;33.20
2657;DHT22;1338;48.176;11.792;2022-10-17T04:45:07;8.60;1.00
2657;DHT22;1338;48.176;11.792;2022-10-17T04:47:36;8.60;1.00
2657;DHT22;1338;48.176;11.792;2022-10-17T04:50:05;8.60;1.00
2657;DHT22;1338;48.176;11.792;2022-10-17T04:52:34;8.40;1.00
2657;DHT22;1338;48.176;11.792;2022-10-17T04:55:04;8.30;1.00
2657;DHT22;1338;48.176;11.792;2022-10-17T04:57:33;8.10;1.00
2657;DHT22;1338;48.176;11.792;2022-10-17T05:00:14;7.90;1.00
2657;DHT22;1338;48.176;11.792;2022-10-17T05:02:58;8.10;1.00
2657;DHT22;1338;48.176;11.792;2022-10-17T05:05:27;8.10;1.00
2657;DHT22;1338;48.176;11.792;2022-10-17T05:07:56;8.30;1.00
2657;DHT22;1338;48.176;11.792;2022-10-17T05:10:29;8.30;1.00
2657;DHT22;1338;48.176;11.792;2022-10-17T05:12:57;8.30;1.00
2657;DHT22;1338;48.176;11.792;2022-10-17T05:15:30;8.40;1.00
2657;DHT22;1338;48.176;11.792;2022-10-17T05:18:00;8.50;1.00
2657;DHT22;1338;48.176;11.792;2022-10-17T05:20:29;8.50;1.00
2657;DHT22;1338;48.176;11.792;2022-10-17T05:22:57;10.00;99.90
2657;DHT22;1338;48.176;11.792;2022-10-17T05:25:30;9.90;1.00
2657;DHT22;1338;48.176;11.792;2022-10-17T05:28:00;10.20;99.90
2657;DHT22;1338;48.176;11.792;2022-10-17T05:30:30;10.50;1.00
2657;DHT22;1338;48.176;11.792;2022-10-17T05:33:05;10.70;1.00
2657;DHT22;1338;48.176;11.792;2022-10-17T05:35:33;10.40;1.00
2657;DHT22;1338;48.176;11.792;2022-10-17T05:38:01;10.10;1.00
2657;DHT22;1338;48.176;11.792;2022-10-17T05:40:32;10.10;1.00
2657;DHT22;1338;48.176;11.792;2022-10-17T05:43:01;9.80;1.00
2657;DHT22;1338;48.176;11.792;2022-10-17T05:45:31;9.50;1.00
2657;DHT22;1338;48.176;11.792;2022-10-17T05:48:00;9.30;1.00
2657;DHT22;1338;48.176;11.792;2022-10-17T05:50:29;9.00;99.90
2657;DHT22;1338;48.176;11.792;2022-10-17T05:53:04;8.80;99.90
2657;DHT22;1338;48.176;11.792;2022-10-17T05:55:37;8.70;99.90
2657;DHT22;1338;48.176;11.792;2022-10-17T05:58:05;8.80;99.90
2657;DHT22;1338;48.176;11.792;2022-10-17T06:00:42;8.80;99.90
2657;DHT22;1338;48.176;11.792;2022-10-17T06:03:11;8.80;99.90
2657;DHT22;1338;48.176;11.792;2022-10-17T06:05:39;9.00;1.00
2657;DHT22;1338;48.176;11.792;2022-10-17T06:08:07;8.90;99.90
2657;DHT22;1338;48.176;11.792;2022-10-17T06:10:36;9.00;1.00
2657;DHT22;1338;48.176;11.792;2022-10-17T06:13:05;9.00;99.90
2657;DHT22;1338;48.176;11.792;2022-10-17T06:15:34;9.00;99.90
2657;DHT22;1338;48.176;11.792;2022-10-17T06:18:07;9.00;99.90
2657;DHT22;1338;48.176;11.792;2022-10-17T06:20:35;8.90;99.90
2657;DHT22;1338;48.176;11.792;2022-10-17T06:23:07;8.90;99.90
2657;DHT22;1338;48.176;11.792;2022-10-17T06:25:46;8.80;99.90
2657;DHT22;1338;48.176;11.792;2022-10-17T06:28:15;8.80;1.00
2657;DHT22;1338;48.176;11.792;2022-10-17T06:30:43;8.90;1.00
2657;DHT22;1338;48.176;11.792;2022-10-17T06:33:12;8.70;1.00
2657;DHT22;1338;48.176;11.792;2022-10-17T06:35:40;8.50;1.00
2657;DHT22;1338;48.176;11.792;2022-10-17T06:38:09;8.40;1.00
2657;DHT22;1338;48.176;11.792;2022-10-17T06:40:37;8.50;1.00
2657;DHT22;1338;48.176;11.792;2022-10-17T06:43:05;8.70;1.00
2657;DHT22;1338;48.176;11.792;2022-10-17T06:46:05;8.90;1.00
2657;DHT22;1338;48.176;11.792;2022-10-17T06:48:39;8.70;1.00
2657;DHT22;1338;48.176;11.792;2022-10-17T06:51:13;8.70;1.00
2657;DHT22;1338;48.176;11.792;2022-10-17T06:53:51;8.90;1.00
2657;DHT22;1338;48.176;11.792;2022-10-17T06:56:37;9.10;1.00
2657;DHT22;1338;48.176;11.792;2022-10-17T06:59:28;9.30;99.90
2657;DHT22;1338;48.176;11.792;2022-10-17T07:02:05;9.60;99.90
2657;DHT22;1338;48.176;11.792;2022-10-17T07:04:37;9.60;99.90
2657;DHT22;1338;48.176;11.792;2022-10-17T07:07:05;9.80;99.90
2657;DHT22;1338;48.176;11.792;2022-10-17T07:09:34;9.90;71.90
2657;DHT22;1338;48.176;11.792;2022-10-17T07:12:02;10.00;1.00
2657;DHT22;1338;48.176;11.792;2022-10-17T07:14:33;10.20;1.00
2657;DHT22;1338;48.176;11.792;2022-10-17T07:17:02;10.40;1.00
2657;DHT22;1338;48.176;11.792;2022-10-17T07:19:31;10.60;1.00
2657;DHT22;1338;48.176;11.792;2022-10-17T07:22:01;10.70;1.00
2657;DHT22;1338;48.176;11.792;2022-10-17T07:24:30;10.90;1.00
2657;DHT22;1338;48.176;11.792;2022-10-17T07:27:15;10.90;1.00
2657;DHT22;1338;48.176;11.792;2022-10-17T07:29:43;11.10;1.00
2657;DHT22;1338;48.176;11.792;2022-10-17T07:32:18;11.20;1.00
2657;DHT22;1338;48.176;11.792;2022-10-17T07:34:46;11.30;1.00
2657;DHT22;1338;48.176;11.792;2022-10-17T07:37:16;11.40;1.00
2657;DHT22;1338;48.176;11.792;2022-10-17T07:39:51;11.60;1.00
2657;DHT22;1338;48.176;11.792;2022-10-17T07:42:19;11.70;99.90
2657;DHT22;1338;48.176;11.792;2022-10-17T07:44:48;11.80;99.90
2657;DHT22;1338;48.176;11.792;2022-10-17T07:47:17;11.90;99.90
2657;DHT22;1338;48.176;11.792;2022-10-17T07:49:46;12.10;99.90
2657;DHT22;1338;48.176;11.792;2022-10-17T07:52:16;12.20;99.90
2657;DHT22;1338;48.176;11.792;2022-10-17T07:54:44;12.40;99.90
2657;DHT22;1338;48.176;11.792;2022-10-17T07:57:12;12.70;99.90
2657;DHT22;1338;48.176;11.792;2022-10-17T07:59:40;12.80;99.90
2657;DHT22;1338;48.176;11.792;2022-10-17T08:02:10;12.80;99.90
2657;DHT22;1338;48.176;11.792;2022-10-17T08:04:41;13.00;99.90
2657;DHT22;1338;48.176;11.792;2022-10-17T08:07:09;13.30;99.90
2657;DHT22;1338;48.176;11.792;2022-10-17T08:09:50;13.30;99.90
2657;DHT22;1338;48.176;11.792;2022-10-17T08:12:18;13.40;99.90
2657;DHT22;1338;48.176;11.792;2022-10-17T08:14:46;13.30;7.30
2657;DHT22;1338;48.176;11.792;2022-10-17T08:17:14;13.10;17.70
2657;DHT22;1338;48.176;11.792;2022-10-17T08:19:42;13.20;11.80
2657;DHT22;1338;48.176;11.792;2022-10-17T08:22:10;13.50;86.00
2657;DHT22;1338;48.176;11.792;2022-10-17T08:24:38;13.40;1.00
2657;DHT22;1338;48.176;11.792;2022-10-17T08:27:09;13.50;16.20
2657;DHT22;1338;48.176;11.792;2022-10-17T08:29:39;14.00;1.00
2657;DHT22;1338;48.176;11.792;2022-10-17T08:32:08;14.20;1.00
2657;DHT22;1338;48.176;11.792;2022-10-17T08:34:36;14.60;1.00
2657;DHT22;1338;48.176;11.792;2022-10-17T08:37:04;14.30;1.00
2657;DHT22;1338;48.176;11.792;2022-10-17T08:39:32;14.10;1.00
2657;DHT22;1338;48.176;11.792;2022-10-17T08:42:15;14.00;1.00
2657;DHT22;1338;48.176;11.792;2022-10-17T08:44:53;14.20;1.00
2657;DHT22;1338;48.176;11.792;2022-10-17T08:47:32;14.50;1.00
2657;DHT22;1338;48.176;11.792;2022-10-17T08:50:03;14.20;1.00
2657;DHT22;1338;48.176;11.792;2022-10-17T08:52:35;14.10;1.00
2657;DHT22;1338;48.176;11.792;2022-10-17T08:55:13;14.50;1.00
2657;DHT22;1338;48.176;11.792;2022-10-17T08:57:44;14.40;1.00
2657;DHT22;1338;48.176;11.792;2022-10-17T09:00:17;15.50;1.00
2657;DHT22;1338;48.176;11.792;2022-10-17T09:02:58;14.90;1.00
2657;DHT22;1338;48.176;11.792;2022-10-17T09:05:36;14.90;1.00
2657;DHT22;1338;48.176;11.792;2022-10-17T09:08:15;15.50;1.00
2657;DHT22;1338;48.176;11.792;2022-10-17T09:10:54;16.10;1.00
2657;DHT22;1338;48.176;11.792;2022-10-17T09:13:38;16.10;1.00
2657;DHT22;1338;48.176;11.792;2022-10-17T09:16:35;16.70;1.00
2657;DHT22;1338;48.176;11.792;2022-10-17T09:19:11;16.80;1.00
2657;DHT22;1338;48.176;11.792;2022-10-17T09:21:44;17.20;1.00
2657;DHT22;1338;48.176;11.792;2022-10-17T09:24:18;16.70;1.00
2657;DHT22;1338;48.176;11.792;2022-10-17T09:26:50;17.20;1.00
2657;DHT22;1338;48.176;11.792;2022-10-17T09:29:21;17.50;1.00
2657;DHT22;1338;48.176;11.792;2022-10-17T09:31:57;17.20;1.00
2657;DHT22;1338;48.176;11.792;2022-10-17T09:34:28;16.60;1.00
2657;DHT22;1338;48.176;11.792;2022-10-17T09:36:58;16.30;1.00
2657;DHT22;1338;48.176;11.792;2022-10-17T09:39:28;17.50;1.00
2657;DHT22;1338;48.176;11.792;2022-10-17T09:41:59;17.90;1.00
2657;DHT22;1338;48.176;11.792;2022-10-17T09:44:31;18.00;1.00
2657;DHT22;1338;48.176;11.792;2022-10-17T09:47:15;17.40;1.00
2657;DHT22;1338;48.176;11.792;2022-10-17T09:49:47;17.10;1.00
2657;DHT22;1338;48.176;11.792;2022-10-17T09:52:17;17.80;1.00
2657;DHT22;1338;48.176;11.792;2022-10-17T09:54:48;18.30;1.00
2657;DHT22;1338;48.176;11.792;2022-10-17T09:57:18;18.30;1.00
2657;DHT22;1338;48.176;11.792;2022-10-17T09:59:56;18.40;1.00
2657;DHT22;1338;48.176;11.792;2022-10-17T10:02:27;17.80;1.00
2657;DHT22;1338;48.176;11.792;2022-10-17T10:05:01;18.00;1.00
2657;DHT22;1338;48.176;11.792;2022-10-17T10:07:34;18.40;1.00
2657;DHT22;1338;48.176;11.792;2022-10-17T10:10:05;18.00;1.00
2657;DHT22;1338;48.176;11.792;2022-10-17T10:12:35;18.30;1.00
2657;DHT22;1338;48.176;11.792;2022-10-17T10:15:30;18.90;1.00
2657;DHT22;1338;48.176;11.792;2022-10-17T10:17:59;18.80;1.00
2657;DHT22;1338;48.176;11.792;2022-10-17T10:20:31;18.30;1.00
2657;DHT22;1338;48.176;11.792;2022-10-17T10:23:14;19.30;1.00
2657;DHT22;1338;48.176;11.792;2022-10-17T10:25:51;19.30;1.00
2657;DHT22;1338;48.176;11.792;2022-10-17T10:28:24;18.90;1.00
2657;DHT22;1338;48.176;11.792;2022-10-17T10:30:55;18.90;1.00
2657;DHT22;1338;48.176;11.792;2022-10-17T10:33:25;19.90;1.00
2657;DHT22;1338;48.176;11.792;2022-10-17T10:35:56;19.90;1.00
2657;DHT22;1338;48.176;11.792;2022-10-17T10:38:24;19.80;1.00
2657;DHT22;1338;48.176;11.792;2022-10-17T10:40:54;20.20;1.00
2657;DHT22;1338;48.176;11.792;2022-10-17T10:43:29;20.20;1.00
2657;DHT22;1338;48.176;11.792;2022-10-17T10:46:01;20.20;1.00
2657;DHT22;1338;48.176;11.792;2022-10-17T10:48:33;20.30;1.00
2657;DHT22;1338;48.176;11.792;2022-10-17T10:51:04;20.10;1.00
2657;DHT22;1338;48.176;11.792;2022-10-17T10:53:41;20.40;1.00
2657;DHT22;1338;48.176;11.792;2022-10-17T10:56:15;20.60;1.00
2657;DHT22;1338;48.176;11.792;2022-10-17T10:58:52;20.70;1.00
2657;DHT22;1338;48.176;11.792;2022-10-17T11:01:27;20.50;1.00
2657;DHT22;1338;48.176;11.792;2022-10-17T11:04:11;20.70;1.00
2657;DHT22;1338;48.176;11.792;2022-10-17T11:06:42;20.70;1.00
2657;DHT22;1338;48.176;11.792;2022-10-17T11:09:21;20.70;1.00
2657;DHT22;1338;48.176;11.792;2022-10-17T11:11:55;20.90;1.00
2657;DHT22;1338;48.176;11.792;2022-10-17T11:14:36;20.80;1.00
2657;DHT22;1338;48.176;11.792;2022-10-17T11:17:11;20.80;1.00
2657;DHT22;1338;48.176;11.792;2022-10-17T11:19:46;21.30;1.00
2657;DHT22;1338;48.176;11.792;2022-10-17T11:22:22;21.00;1.00
2657;DHT22;1338;48.176;11.792;2022-10-17T11:24:58;21.20;1.00
2657;DHT22;1338;48.176;11.792;2022-10-17T11:27:28;21.40;1.00
2657;DHT22;1338;48.176;11.792;2022-10-17T11:29:57;21.40;1.00
2657;DHT22;1338;48.176;11.792;2022-10-17T11:32:31;21.60;1.00
2657;DHT22;1338;48.176;11.792;2022-10-17T11:35:03;20.80;1.00
2657;DHT22;1338;48.176;11.792;2022-10-17T11:37:35;22.00;1.00
2657;DHT22;1338;48.176;11.792;2022-10-17T11:40:15;21.30;1.00
2657;DHT22;1338;48.176;11.792;2022-10-17T11:42:53;22.40;1.00
2657;DHT22;1338;48.176;11.792;2022-10-17T11:45:26;22.70;1.00
2657;DHT22;1338;48.176;11.792;2022-10-17T11:47:59;23.10;1.00
2657;DHT22;1338;48.176;11.792;2022-10-17T11:50:30;23.00;1.00
2657;DHT22;1338;48.176;11.792;2022-10-17T11:53:22;22.40;1.00
2657;DHT22;1338;48.176;11.792;2022-10-17T11:55:52;21.10;1.00
2657;DHT22;1338;48.176;11.792;2022-10-17T11:58:27;22.80;1.00
2657;DHT22;1338;48.176;11.792;2022-10-17T12:01:03;23.40;1.00
2657;DHT22;1338;48.176;11.792;2022-10-17T12:03:50;23.60;1.00
2657;DHT22;1338;48.176;11.792;2022-10-17T12:06:33;23.70;1.00
2657;DHT22;1338;48.176;11.792;2022-10-17T12:09:09;23.80;1.00
2657;DHT22;1338;48.176;11.792;2022-10-17T12:11:45;23.40;1.00
2657;DHT22;1338;48.176;11.792;2022-10-17T12:14:37;23.30;1.00
2657;DHT22;1338;48.176;11.792;2022-10-17T12:17:22;24.50;1.00
2657;DHT22;1338;48.176;11.792;2022-10-17T12:19:52;24.50;1.00
2657;DHT22;1338;48.176;11.792;2022-10-17T12:22:22;24.10;1.00
2657;DHT22;1338;48.176;11.792;2022-10-17T12:24:54;24.20;1.00
2657;DHT22;1338;48.176;11.792;2022-10-17T12:27:38;24.60;1.00
2657;DHT22;1338;48.176;11.792;2022-10-17T12:30:21;24.20;1.00
2657;DHT22;1338;48.176;11.792;2022-10-17T12:33:01;24.70;1.00
2657;DHT22;1338;48.176;11.792;2022-10-17T12:35:36;23.70;1.00
2657;DHT22;1338;48.176;11.792;2022-10-17T12:38:24;25.30;1.00
2657;DHT22;1338;48.176;11.792;2022-10-17T12:41:01;26.20;99.90
2657;DHT22;1338;48.176;11.792;2022-10-17T12:43:56;24.90;99.90
2657;DHT22;1338;48.176;11.792;2022-10-17T12:46:42;25.90;99.90
2657;DHT22;1338;48.176;11.792;2022-10-17T12:49:42;25.50;99.90
2657;DHT22;1338;48.176;11.792;2022-10-17T12:52:23;25.00;99.90
2657;DHT22;1338;48.176;11.792;2022-10-17T12:54:59;25.10;99.90
2657;DHT22;1338;48.176;11.792;2022-10-17T12:57:57;26.40;99.90
2657;DHT22;1338;48.176;11.792;2022-10-17T13:00:32;27.20;99.90
2657;DHT22;1338;48.176;11.792;2022-10-17T13:03:05;27.50;99.90
2657;DHT22;1338;48.176;11.792;2022-10-17T13:05:40;28.00;99.90
2657;DHT22;1338;48.176;11.792;2022-10-17T13:08:15;26.60;99.90
2657;DHT22;1338;48.176;11.792;2022-10-17T13:10:46;26.40;99.90
2657;DHT22;1338;48.176;11.792;2022-10-17T13:13:20;27.10;99.90
2657;DHT22;1338;48.176;11.792;2022-10-17T13:15:50;27.00;99.90
2657;DHT22;1338;48.176;11.792;2022-10-17T13:18:20;27.30;99.90
2657;DHT22;1338;48.176;11.792;2022-10-17T13:21:01;27.10;99.90
2657;DHT22;1338;48.176;11.792;2022-10-17T13:23:32;26.80;99.90
2657;DHT22;1338;48.176;11.792;2022-10-17T13:26:05;27.60;99.90
2657;DHT22;1338;48.176;11.792;2022-10-17T13:28:33;26.80;99.90
2657;DHT22;1338;48.176;11.792;2022-10-17T13:31:12;26.40;99.90
2657;DHT22;1338;48.176;11.792;2022-10-17T13:33:56;26.90;99.90
2657;DHT22;1338;48.176;11.792;2022-10-17T13:36:24;27.70;99.90
2657;DHT22;1338;48.176;11.792;2022-10-17T13:38:56;27.40;99.90
2657;DHT22;1338;48.176;11.792;2022-10-17T13:41:26;26.40;99.90
2657;DHT22;1338;48.176;11.792;2022-10-17T13:44:11;27.30;99.90
2657;DHT22;1338;48.176;11.792;2022-10-17T13:46:40;29.00;99.90
2657;DHT22;1338;48.176;11.792;2022-10-17T13:49:14;28.60;99.90
2657;DHT22;1338;48.176;11.792;2022-10-17T13:51:45;29.10;99.90
2657;DHT22;1338;48.176;11.792;2022-10-17T13:54:28;29.40;99.90
2657;DHT22;1338;48.176;11.792;2022-10-17T13:56:59;28.00;99.90
2657;DHT22;1338;48.176;11.792;2022-10-17T13:59:31;28.10;99.90
2657;DHT22;1338;48.176;11.792;2022-10-17T14:02:00;27.80;99.90
2657;DHT22;1338;48.176;11.792;2022-10-17T14:04:28;29.00;99.90
2657;DHT22;1338;48.176;11.792;2022-10-17T14:07:25;29.60;99.90
2657;DHT22;1338;48.176;11.792;2022-10-17T14:10:06;28.50;99.90
2657;DHT22;1338;48.176;11.792;2022-10-17T14:12:44;29.10;99.90
2657;DHT22;1338;48.176;11.792;2022-10-17T14:15:17;29.30;99.90
2657;DHT22;1338;48.176;11.792;2022-10-17T14:17:53;29.00;99.90
2657;DHT22;1338;48.176;11.792;2022-10-17T14:20:22;30.30;99.90
2657;DHT22;1338;48.176;11.792;2022-10-17T14:23:29;30.20;99.90
2657;DHT22;1338;48.176;11.792;2022-10-17T14:26:10;30.40;99.90
2657;DHT22;1338;48.176;11.792;2022-10-17T14:28:40;29.90;99.90
2657;DHT22;1338;48.176;11.792;2022-10-17T14:31:21;30.20;99.90
2657;DHT22;1338;48.176;11.792;2022-10-17T14:33:52;30.60;99.90
2657;DHT22;1338;48.176;11.792;2022-10-17T14:36:30;30.90;99.90
2657;DHT22;1338;48.176;11.792;2022-10-17T14:38:59;30.30;99.90
2657;DHT22;1338;48.176;11.792;2022-10-17T14:41:31;31.70;99.90
2657;DHT22;1338;48.176;11.792;2022-10-17T14:44:18;31.60;99.90
2657;DHT22;1338;48.176;11.792;2022-10-17T14:46:51;30.20;99.90
2657;DHT22;1338;48.176;11.792;2022-10-17T14:49:24;29.50;99.90
2657;DHT22;1338;48.176;11.792;2022-10-17T14:52:24;29.30;99.90
2657;DHT22;1338;48.176;11.792;2022-10-17T14:54:53;29.90;99.90
2657;DHT22;1338;48.176;11.792;2022-10-17T14:57:27;29.40;99.90
2657;DHT22;1338;48.176;11.792;2022-10-17T14:59:55;29.20;99.90
2657;DHT22;1338;48.176;11.792;2022-10-17T15:02:24;30.20;99.90
2657;DHT22;1338;48.176;11.792;2022-10-17T15:04:53;30.10;99.90
2657;DHT22;1338;48.176;11.792;2022-10-17T15:07:21;29.70;99.90
2657;DHT22;1338;48.176;11.792;2022-10-17T15:09:51;29.20;99.90
2657;DHT22;1338;48.176;11.792;2022-10-17T15:12:21;30.60;99.90
2657;DHT22;1338;48.176;11.792;2022-10-17T15:14:52;30.20;99.90
2657;DHT22;1338;48.176;11.792;2022-10-17T15:17:23;30.30;99.90
2657;DHT22;1338;48.176;11.792;2022-10-17T15:19:51;30.20;99.90
2657;DHT22;1338;48.176;11.792;2022-10-17T15:22:20;30.70;99.90
2657;DHT22;1338;48.176;11.792;2022-10-17T15:24:48;30.30;99.90
2657;DHT22;1338;48.176;11.792;2022-10-17T15:27:18;30.50;99.90
2657;DHT22;1338;48.176;11.792;2022-10-17T15:29:47;30.30;99.90
2657;DHT22;1338;48.176;11.792;2022-10-17T15:32:17;30.20;99.90
2657;DHT22;1338;48.176;11.792;2022-10-17T15:34:45;30.20;99.90
2657;DHT22;1338;48.176;11.792;2022-10-17T15:37:16;29.70;99.90
2657;DHT22;1338;48.176;11.792;2022-10-17T15:39:48;28.60;99.90
2657;DHT22;1338;48.176;11.792;2022-10-17T15:42:20;27.60;99.90
2657;DHT22;1338;48.176;11.792;2022-10-17T15:44:48;26.90;99.90
2657;DHT22;1338;48.176;11.792;2022-10-17T15:47:23;25.80;99.90
2657;DHT22;1338;48.176;11.792;2022-10-17T15:49:52;24.80;99.90
2657;DHT22;1338;48.176;11.792;2022-10-17T15:52:20;23.60;99.90
2657;DHT22;1338;48.176;11.792;2022-10-17T15:54:48;23.40;99.90
2657;DHT22;1338;48.176;11.792;2022-10-17T15:57:18;23.10;99.90
2657;DHT22;1338;48.176;11.792;2022-10-17T15:59:47;23.90;99.90
2657;DHT22;1338;48.176;11.792;2022-10-17T16:02:19;24.00;99.90
2657;DHT22;1338;48.176;11.792;2022-10-17T16:04:48;23.40;99.90
2657;DHT22;1338;48.176;11.792;2022-10-17T16:07:16;24.00;99.90
2657;DHT22;1338;48.176;11.792;2022-10-17T16:09:45;23.90;99.90
2657;DHT22;1338;48.176;11.792;2022-10-17T16:12:15;23.70;99.90
2657;DHT22;1338;48.176;11.792;2022-10-17T16:14:44;23.40;99.90
2657;DHT22;1338;48.176;11.792;2022-10-17T16:17:13;23.50;99.90
2657;DHT22;1338;48.176;11.792;2022-10-17T16:19:43;23.00;99.90
2657;DHT22;1338;48.176;11.792;2022-10-17T16:22:19;22.90;99.90
2657;DHT22;1338;48.176;11.792;2022-10-17T16:24:48;22.40;99.90
2657;DHT22;1338;48.176;11.792;2022-10-17T16:27:16;21.70;99.90
2657;DHT22;1338;48.176;11.792;2022-10-17T16:29:44;21.30;99.90
2657;DHT22;1338;48.176;11.792;2022-10-17T16:32:12;20.90;99.90
2657;DHT22;1338;48.176;11.792;2022-10-17T16:34:40;20.50;1.00
2657;DHT22;1338;48.176;11.792;2022-10-17T16:37:10;19.90;1.00
2657;DHT22;1338;48.176;11.792;2022-10-17T16:39:38;20.10;1.00